sensor_id;sensor_type;location;lat;lon;timestamp;P1;durP1;ratioP1;P2;durP2;ratioP2
9138;SDS011;4604;48.616;9.548;2023-07-29T00:00:37;1.95;;;0.80;;
9138;SDS011;4604;48.616;9.548;2023-07-29T00:03:04;1.02;;;0.75;;
9138;SDS011;4604;48.616;9.548;2023-07-29T00:05:31;2.38;;;1.02;;
9138;SDS011;4604;48.616;9.548;2023-07-29T00:07:58;1.40;;;1.08;;
9138;SDS011;4604;48.616;9.548;2023-07-29T00:10:25;1.30;;;1.20;;
9138;SDS011;4604;48.616;9.548;2023-07-29T00:12:53;2.28;;;0.90;;
9138;SDS011;4604;48.616;9.548;2023-07-29T00:15:20;2.35;;;1.15;;
9138;SDS011;4604;48.616;9.548;2023-07-29T00:17:46;2.30;;;0.82;;
9138;SDS011;4604;48.616;9.548;2023-07-29T00:20:13;0.98;;;0.90;;
9138;SDS011;4604;48.616;9.548;2023-07-29T00:22:40;1.15;;;1.10;;
9138;SDS011;4604;48.616;9.548;2023-07-29T00:25:07;1.10;;;1.00;;
9138;SDS011;4604;48.616;9.548;2023-07-29T00:27:34;1.02;;;1.02;;
9138;SDS011;4604;48.616;9.548;2023-07-29T00:30:02;0.77;;;0.77;;
9138;SDS011;4604;48.616;9.548;2023-07-29T00:32:29;2.22;;;1.13;;
9138;SDS011;4604;48.616;9.548;2023-07-29T00:34:56;1.75;;;1.30;;
9138;SDS011;4604;48.616;9.548;2023-07-29T00:37:25;1.38;;;1.02;;
9138;SDS011;4604;48.616;9.548;2023-07-29T00:39:52;1.33;;;1.23;;
9138;SDS011;4604;48.616;9.548;2023-07-29T00:42:19;2.33;;;1.20;;
9138;SDS011;4604;48.616;9.548;2023-07-29T00:44:45;1.30;;;1.20;;
9138;SDS011;4604;48.616;9.548;2023-07-29T00:47:13;0.95;;;0.95;;
9138;SDS011;4604;48.616;9.548;2023-07-29T00:49:41;1.25;;;1.15;;
9138;SDS011;4604;48.616;9.548;2023-07-29T00:52:09;1.42;;;1.33;;
9138;SDS011;4604;48.616;9.548;2023-07-29T00:54:37;1.33;;;1.23;;
9138;SDS011;4604;48.616;9.548;2023-07-29T00:57:04;1.38;;;1.27;;
9138;SDS011;4604;48.616;9.548;2023-07-29T00:59:32;1.10;;;1.10;;
9138;SDS011;4604;48.616;9.548;2023-07-29T01:02:01;1.38;;;1.23;;
9138;SDS011;4604;48.616;9.548;2023-07-29T01:04:29;1.25;;;1.15;;
9138;SDS011;4604;48.616;9.548;2023-07-29T01:06:58;1.60;;;1.30;;
9138;SDS011;4604;48.616;9.548;2023-07-29T01:09:33;2.42;;;1.17;;
9138;SDS011;4604;48.616;9.548;2023-07-29T01:12:08;1.33;;;1.23;;
9138;SDS011;4604;48.616;9.548;2023-07-29T01:14:41;5.35;;;1.30;;
9138;SDS011;4604;48.616;9.548;2023-07-29T01:17:15;1.10;;;1.10;;
9138;SDS011;4604;48.616;9.548;2023-07-29T01:19:53;1.52;;;1.30;;
9138;SDS011;4604;48.616;9.548;2023-07-29T01:22:27;1.48;;;1.38;;
9138;SDS011;4604;48.616;9.548;2023-07-29T01:24:57;2.13;;;1.40;;
9138;SDS011;4604;48.616;9.548;2023-07-29T01:27:24;1.30;;;1.10;;
9138;SDS011;4604;48.616;9.548;2023-07-29T01:29:51;1.35;;;1.25;;
9138;SDS011;4604;48.616;9.548;2023-07-29T01:32:19;2.05;;;1.30;;
9138;SDS011;4604;48.616;9.548;2023-07-29T01:35:05;1.10;;;1.05;;
9138;SDS011;4604;48.616;9.548;2023-07-29T01:37:41;2.05;;;1.60;;
9138;SDS011;4604;48.616;9.548;2023-07-29T01:40:12;1.50;;;1.40;;
9138;SDS011;4604;48.616;9.548;2023-07-29T01:42:39;1.55;;;1.45;;
9138;SDS011;4604;48.616;9.548;2023-07-29T01:45:06;1.67;;;1.58;;
9138;SDS011;4604;48.616;9.548;2023-07-29T01:47:33;2.00;;;1.50;;
9138;SDS011;4604;48.616;9.548;2023-07-29T01:50:00;1.85;;;1.38;;
9138;SDS011;4604;48.616;9.548;2023-07-29T01:52:26;3.58;;;1.67;;
9138;SDS011;4604;48.616;9.548;2023-07-29T01:54:53;1.55;;;1.45;;
9138;SDS011;4604;48.616;9.548;2023-07-29T01:57:21;2.17;;;1.70;;
9138;SDS011;4604;48.616;9.548;2023-07-29T01:59:48;4.78;;;1.70;;
9138;SDS011;4604;48.616;9.548;2023-07-29T02:02:14;1.60;;;1.50;;
9138;SDS011;4604;48.616;9.548;2023-07-29T02:04:41;2.22;;;1.60;;
9138;SDS011;4604;48.616;9.548;2023-07-29T02:07:08;1.58;;;1.33;;
9138;SDS011;4604;48.616;9.548;2023-07-29T02:09:34;2.13;;;1.55;;
9138;SDS011;4604;48.616;9.548;2023-07-29T02:12:01;2.53;;;1.73;;
9138;SDS011;4604;48.616;9.548;2023-07-29T02:14:29;1.58;;;1.48;;
9138;SDS011;4604;48.616;9.548;2023-07-29T02:16:56;2.10;;;1.60;;
9138;SDS011;4604;48.616;9.548;2023-07-29T02:19:22;1.92;;;1.60;;
9138;SDS011;4604;48.616;9.548;2023-07-29T02:21:49;2.20;;;1.63;;
9138;SDS011;4604;48.616;9.548;2023-07-29T02:24:16;4.03;;;2.20;;
9138;SDS011;4604;48.616;9.548;2023-07-29T02:26:42;3.30;;;1.92;;
9138;SDS011;4604;48.616;9.548;2023-07-29T02:29:09;5.35;;;2.72;;
9138;SDS011;4604;48.616;9.548;2023-07-29T02:31:37;2.10;;;1.90;;
9138;SDS011;4604;48.616;9.548;2023-07-29T02:34:04;1.65;;;1.55;;
9138;SDS011;4604;48.616;9.548;2023-07-29T02:36:30;3.33;;;1.55;;
9138;SDS011;4604;48.616;9.548;2023-07-29T02:38:57;2.17;;;1.67;;
9138;SDS011;4604;48.616;9.548;2023-07-29T02:41:24;3.28;;;1.77;;
9138;SDS011;4604;48.616;9.548;2023-07-29T02:43:50;1.70;;;1.60;;
9138;SDS011;4604;48.616;9.548;2023-07-29T02:46:17;3.60;;;1.80;;
9138;SDS011;4604;48.616;9.548;2023-07-29T02:48:45;1.48;;;1.38;;
9138;SDS011;4604;48.616;9.548;2023-07-29T02:51:12;2.15;;;1.95;;
9138;SDS011;4604;48.616;9.548;2023-07-29T02:53:39;1.95;;;1.75;;
9138;SDS011;4604;48.616;9.548;2023-07-29T02:56:05;2.72;;;1.40;;
9138;SDS011;4604;48.616;9.548;2023-07-29T02:58:34;2.15;;;1.95;;
9138;SDS011;4604;48.616;9.548;2023-07-29T03:01:01;2.42;;;2.03;;
9138;SDS011;4604;48.616;9.548;2023-07-29T03:03:28;2.83;;;2.00;;
9138;SDS011;4604;48.616;9.548;2023-07-29T03:05:58;1.70;;;1.60;;
9138;SDS011;4604;48.616;9.548;2023-07-29T03:08:26;2.10;;;1.90;;
9138;SDS011;4604;48.616;9.548;2023-07-29T03:10:52;4.95;;;2.28;;
9138;SDS011;4604;48.616;9.548;2023-07-29T03:13:20;3.25;;;1.90;;
9138;SDS011;4604;48.616;9.548;2023-07-29T03:15:47;2.58;;;1.95;;
9138;SDS011;4604;48.616;9.548;2023-07-29T03:18:13;4.78;;;2.00;;
9138;SDS011;4604;48.616;9.548;2023-07-29T03:20:40;1.90;;;1.80;;
9138;SDS011;4604;48.616;9.548;2023-07-29T03:23:08;2.50;;;2.17;;
9138;SDS011;4604;48.616;9.548;2023-07-29T03:25:35;3.65;;;1.83;;
9138;SDS011;4604;48.616;9.548;2023-07-29T03:28:02;3.63;;;1.70;;
9138;SDS011;4604;48.616;9.548;2023-07-29T03:30:29;1.80;;;1.60;;
9138;SDS011;4604;48.616;9.548;2023-07-29T03:32:55;3.60;;;2.00;;
9138;SDS011;4604;48.616;9.548;2023-07-29T03:35:22;2.75;;;1.88;;
9138;SDS011;4604;48.616;9.548;2023-07-29T03:37:49;2.38;;;2.00;;
9138;SDS011;4604;48.616;9.548;2023-07-29T03:40:16;1.95;;;1.83;;
9138;SDS011;4604;48.616;9.548;2023-07-29T03:42:43;2.40;;;2.00;;
9138;SDS011;4604;48.616;9.548;2023-07-29T03:45:10;3.53;;;1.80;;
9138;SDS011;4604;48.616;9.548;2023-07-29T03:47:36;1.88;;;1.77;;
9138;SDS011;4604;48.616;9.548;2023-07-29T03:50:04;2.10;;;1.90;;
9138;SDS011;4604;48.616;9.548;2023-07-29T03:52:31;1.98;;;1.65;;
9138;SDS011;4604;48.616;9.548;2023-07-29T03:54:58;1.75;;;1.63;;
9138;SDS011;4604;48.616;9.548;2023-07-29T03:57:26;2.15;;;1.95;;
9138;SDS011;4604;48.616;9.548;2023-07-29T03:59:54;1.92;;;1.80;;
9138;SDS011;4604;48.616;9.548;2023-07-29T04:02:20;3.00;;;1.70;;
9138;SDS011;4604;48.616;9.548;2023-07-29T04:04:47;2.70;;;2.10;;
9138;SDS011;4604;48.616;9.548;2023-07-29T04:07:14;2.67;;;1.40;;
9138;SDS011;4604;48.616;9.548;2023-07-29T04:09:40;1.70;;;1.60;;
9138;SDS011;4604;48.616;9.548;2023-07-29T04:12:08;2.05;;;1.60;;
9138;SDS011;4604;48.616;9.548;2023-07-29T04:14:36;1.65;;;1.55;;
9138;SDS011;4604;48.616;9.548;2023-07-29T04:17:03;2.05;;;1.77;;
9138;SDS011;4604;48.616;9.548;2023-07-29T04:19:30;2.15;;;1.60;;
9138;SDS011;4604;48.616;9.548;2023-07-29T04:21:57;1.70;;;1.60;;
9138;SDS011;4604;48.616;9.548;2023-07-29T04:24:24;1.80;;;1.70;;
9138;SDS011;4604;48.616;9.548;2023-07-29T04:26:50;3.10;;;1.90;;
9138;SDS011;4604;48.616;9.548;2023-07-29T04:29:17;2.17;;;1.90;;
9138;SDS011;4604;48.616;9.548;2023-07-29T04:31:45;2.10;;;1.90;;
9138;SDS011;4604;48.616;9.548;2023-07-29T04:34:12;2.40;;;1.80;;
9138;SDS011;4604;48.616;9.548;2023-07-29T04:36:38;3.08;;;1.95;;
9138;SDS011;4604;48.616;9.548;2023-07-29T04:39:05;3.42;;;2.00;;
9138;SDS011;4604;48.616;9.548;2023-07-29T04:41:31;2.95;;;1.80;;
9138;SDS011;4604;48.616;9.548;2023-07-29T04:43:58;2.25;;;1.90;;
9138;SDS011;4604;48.616;9.548;2023-07-29T04:46:25;2.72;;;2.17;;
9138;SDS011;4604;48.616;9.548;2023-07-29T04:48:53;2.85;;;1.90;;
9138;SDS011;4604;48.616;9.548;2023-07-29T04:51:19;3.95;;;2.38;;
9138;SDS011;4604;48.616;9.548;2023-07-29T04:53:46;3.97;;;2.20;;
9138;SDS011;4604;48.616;9.548;2023-07-29T04:56:13;3.50;;;2.22;;
9138;SDS011;4604;48.616;9.548;2023-07-29T04:58:40;3.47;;;2.00;;
9138;SDS011;4604;48.616;9.548;2023-07-29T05:01:06;2.35;;;2.15;;
9138;SDS011;4604;48.616;9.548;2023-07-29T05:03:33;3.65;;;2.40;;
9138;SDS011;4604;48.616;9.548;2023-07-29T05:06:01;3.67;;;2.10;;
9138;SDS011;4604;48.616;9.548;2023-07-29T05:08:28;3.28;;;2.33;;
9138;SDS011;4604;48.616;9.548;2023-07-29T05:10:54;3.67;;;2.10;;
9138;SDS011;4604;48.616;9.548;2023-07-29T05:13:22;3.05;;;2.50;;
9138;SDS011;4604;48.616;9.548;2023-07-29T05:15:49;2.92;;;2.10;;
9138;SDS011;4604;48.616;9.548;2023-07-29T05:18:17;2.40;;;2.20;;
9138;SDS011;4604;48.616;9.548;2023-07-29T05:20:43;2.63;;;1.83;;
9138;SDS011;4604;48.616;9.548;2023-07-29T05:23:14;3.13;;;2.08;;
9138;SDS011;4604;48.616;9.548;2023-07-29T05:25:41;4.53;;;2.00;;
9138;SDS011;4604;48.616;9.548;2023-07-29T05:28:07;3.78;;;2.30;;
9138;SDS011;4604;48.616;9.548;2023-07-29T05:30:34;2.83;;;2.33;;
9138;SDS011;4604;48.616;9.548;2023-07-29T05:33:02;2.10;;;1.90;;
9138;SDS011;4604;48.616;9.548;2023-07-29T05:35:29;4.40;;;2.10;;
9138;SDS011;4604;48.616;9.548;2023-07-29T05:37:55;2.80;;;2.20;;
9138;SDS011;4604;48.616;9.548;2023-07-29T05:40:23;6.75;;;2.40;;
9138;SDS011;4604;48.616;9.548;2023-07-29T05:42:50;5.43;;;2.17;;
9138;SDS011;4604;48.616;9.548;2023-07-29T05:45:17;4.25;;;2.55;;
9138;SDS011;4604;48.616;9.548;2023-07-29T05:47:43;3.58;;;2.60;;
9138;SDS011;4604;48.616;9.548;2023-07-29T05:50:10;3.92;;;2.00;;
9138;SDS011;4604;48.616;9.548;2023-07-29T05:52:37;2.05;;;1.85;;
9138;SDS011;4604;48.616;9.548;2023-07-29T05:55:04;3.30;;;2.10;;
9138;SDS011;4604;48.616;9.548;2023-07-29T05:57:32;5.45;;;2.60;;
9138;SDS011;4604;48.616;9.548;2023-07-29T05:59:59;3.50;;;2.25;;
9138;SDS011;4604;48.616;9.548;2023-07-29T06:02:26;2.70;;;2.20;;
9138;SDS011;4604;48.616;9.548;2023-07-29T06:04:52;2.10;;;1.80;;
9138;SDS011;4604;48.616;9.548;2023-07-29T06:07:19;2.28;;;2.08;;
9138;SDS011;4604;48.616;9.548;2023-07-29T06:09:46;1.83;;;1.70;;
9138;SDS011;4604;48.616;9.548;2023-07-29T06:12:13;2.88;;;1.88;;
9138;SDS011;4604;48.616;9.548;2023-07-29T06:14:41;2.28;;;2.08;;
9138;SDS011;4604;48.616;9.548;2023-07-29T06:17:08;3.88;;;2.00;;
9138;SDS011;4604;48.616;9.548;2023-07-29T06:19:36;3.30;;;1.70;;
9138;SDS011;4604;48.616;9.548;2023-07-29T06:22:03;1.80;;;1.70;;
9138;SDS011;4604;48.616;9.548;2023-07-29T06:24:30;2.38;;;1.70;;
9138;SDS011;4604;48.616;9.548;2023-07-29T06:26:57;2.05;;;1.63;;
9138;SDS011;4604;48.616;9.548;2023-07-29T06:29:24;2.10;;;1.90;;
9138;SDS011;4604;48.616;9.548;2023-07-29T06:31:52;2.13;;;1.88;;
9138;SDS011;4604;48.616;9.548;2023-07-29T06:34:19;3.22;;;1.20;;
9138;SDS011;4604;48.616;9.548;2023-07-29T06:36:46;3.80;;;1.70;;
9138;SDS011;4604;48.616;9.548;2023-07-29T06:39:14;2.13;;;1.63;;
9138;SDS011;4604;48.616;9.548;2023-07-29T06:41:40;1.67;;;1.58;;
9138;SDS011;4604;48.616;9.548;2023-07-29T06:44:07;1.58;;;1.48;;
9138;SDS011;4604;48.616;9.548;2023-07-29T06:46:34;2.88;;;1.90;;
9138;SDS011;4604;48.616;9.548;2023-07-29T06:49:02;4.28;;;1.90;;
9138;SDS011;4604;48.616;9.548;2023-07-29T06:51:28;3.03;;;1.90;;
9138;SDS011;4604;48.616;9.548;2023-07-29T06:53:57;3.45;;;1.88;;
9138;SDS011;4604;48.616;9.548;2023-07-29T06:56:24;2.30;;;2.10;;
9138;SDS011;4604;48.616;9.548;2023-07-29T06:58:51;2.38;;;2.17;;
9138;SDS011;4604;48.616;9.548;2023-07-29T07:01:17;3.28;;;2.00;;
9138;SDS011;4604;48.616;9.548;2023-07-29T07:03:44;2.10;;;1.90;;
9138;SDS011;4604;48.616;9.548;2023-07-29T07:06:12;3.78;;;2.20;;
9138;SDS011;4604;48.616;9.548;2023-07-29T07:08:39;3.63;;;2.47;;
9138;SDS011;4604;48.616;9.548;2023-07-29T07:11:06;2.95;;;2.50;;
9138;SDS011;4604;48.616;9.548;2023-07-29T07:13:33;2.95;;;2.45;;
9138;SDS011;4604;48.616;9.548;2023-07-29T07:16:00;2.40;;;2.15;;
9138;SDS011;4604;48.616;9.548;2023-07-29T07:18:26;2.83;;;2.28;;
9138;SDS011;4604;48.616;9.548;2023-07-29T07:20:53;2.88;;;2.40;;
9138;SDS011;4604;48.616;9.548;2023-07-29T07:23:21;3.25;;;2.67;;
9138;SDS011;4604;48.616;9.548;2023-07-29T07:25:48;4.53;;;2.70;;
9138;SDS011;4604;48.616;9.548;2023-07-29T07:28:14;4.72;;;2.80;;
9138;SDS011;4604;48.616;9.548;2023-07-29T07:30:41;2.83;;;2.35;;
9138;SDS011;4604;48.616;9.548;2023-07-29T07:33:08;4.22;;;2.30;;
9138;SDS011;4604;48.616;9.548;2023-07-29T07:35:34;3.03;;;2.10;;
9138;SDS011;4604;48.616;9.548;2023-07-29T07:38:01;5.05;;;2.38;;
9138;SDS011;4604;48.616;9.548;2023-07-29T07:40:30;5.07;;;2.40;;
9138;SDS011;4604;48.616;9.548;2023-07-29T07:42:57;2.53;;;1.67;;
9138;SDS011;4604;48.616;9.548;2023-07-29T07:45:24;2.38;;;2.13;;
9138;SDS011;4604;48.616;9.548;2023-07-29T07:47:51;3.67;;;2.00;;
9138;SDS011;4604;48.616;9.548;2023-07-29T07:50:18;2.83;;;2.20;;
9138;SDS011;4604;48.616;9.548;2023-07-29T07:52:46;4.80;;;2.47;;
9138;SDS011;4604;48.616;9.548;2023-07-29T07:55:13;2.60;;;2.30;;
9138;SDS011;4604;48.616;9.548;2023-07-29T07:57:41;4.32;;;1.85;;
9138;SDS011;4604;48.616;9.548;2023-07-29T08:00:08;3.55;;;2.00;;
9138;SDS011;4604;48.616;9.548;2023-07-29T08:02:35;2.05;;;1.83;;
9138;SDS011;4604;48.616;9.548;2023-07-29T08:05:02;1.92;;;1.70;;
9138;SDS011;4604;48.616;9.548;2023-07-29T08:07:29;3.28;;;2.00;;
9138;SDS011;4604;48.616;9.548;2023-07-29T08:09:56;2.75;;;1.85;;
9138;SDS011;4604;48.616;9.548;2023-07-29T08:12:25;2.00;;;1.75;;
9138;SDS011;4604;48.616;9.548;2023-07-29T08:14:53;2.63;;;1.95;;
9138;SDS011;4604;48.616;9.548;2023-07-29T08:17:20;3.20;;;2.15;;
9138;SDS011;4604;48.616;9.548;2023-07-29T08:19:46;2.30;;;1.60;;
9138;SDS011;4604;48.616;9.548;2023-07-29T08:22:13;4.90;;;1.80;;
9138;SDS011;4604;48.616;9.548;2023-07-29T08:24:42;1.95;;;1.75;;
9138;SDS011;4604;48.616;9.548;2023-07-29T08:27:08;2.75;;;1.17;;
9138;SDS011;4604;48.616;9.548;2023-07-29T08:29:35;1.65;;;1.55;;
9138;SDS011;4604;48.616;9.548;2023-07-29T08:32:03;2.05;;;1.50;;
9138;SDS011;4604;48.616;9.548;2023-07-29T08:34:30;1.60;;;1.50;;
9138;SDS011;4604;48.616;9.548;2023-07-29T08:36:56;2.78;;;1.60;;
9138;SDS011;4604;48.616;9.548;2023-07-29T08:39:23;1.55;;;1.40;;
9138;SDS011;4604;48.616;9.548;2023-07-29T08:41:51;1.65;;;1.40;;
9138;SDS011;4604;48.616;9.548;2023-07-29T08:44:25;2.55;;;1.40;;
9138;SDS011;4604;48.616;9.548;2023-07-29T08:46:53;1.50;;;1.40;;
9138;SDS011;4604;48.616;9.548;2023-07-29T08:49:22;3.53;;;1.60;;
9138;SDS011;4604;48.616;9.548;2023-07-29T08:51:50;1.80;;;1.63;;
9138;SDS011;4604;48.616;9.548;2023-07-29T08:54:19;1.35;;;1.25;;
9138;SDS011;4604;48.616;9.548;2023-07-29T08:56:46;1.35;;;1.25;;
9138;SDS011;4604;48.616;9.548;2023-07-29T08:59:13;1.35;;;1.17;;
9138;SDS011;4604;48.616;9.548;2023-07-29T09:01:41;1.67;;;1.10;;
9138;SDS011;4604;48.616;9.548;2023-07-29T09:04:08;1.70;;;1.60;;
9138;SDS011;4604;48.616;9.548;2023-07-29T09:06:36;1.70;;;1.35;;
9138;SDS011;4604;48.616;9.548;2023-07-29T09:09:05;1.58;;;1.48;;
9138;SDS011;4604;48.616;9.548;2023-07-29T09:11:34;1.60;;;1.50;;
9138;SDS011;4604;48.616;9.548;2023-07-29T09:14:01;1.92;;;1.70;;
9138;SDS011;4604;48.616;9.548;2023-07-29T09:16:28;3.03;;;1.58;;
9138;SDS011;4604;48.616;9.548;2023-07-29T09:18:55;1.60;;;1.50;;
9138;SDS011;4604;48.616;9.548;2023-07-29T09:21:22;2.00;;;1.63;;
9138;SDS011;4604;48.616;9.548;2023-07-29T09:23:51;2.10;;;1.80;;
9138;SDS011;4604;48.616;9.548;2023-07-29T09:26:21;1.58;;;1.48;;
9138;SDS011;4604;48.616;9.548;2023-07-29T09:28:51;1.90;;;1.70;;
9138;SDS011;4604;48.616;9.548;2023-07-29T09:31:19;1.50;;;1.40;;
9138;SDS011;4604;48.616;9.548;2023-07-29T09:33:46;1.67;;;1.58;;
9138;SDS011;4604;48.616;9.548;2023-07-29T09:36:13;1.60;;;1.50;;
9138;SDS011;4604;48.616;9.548;2023-07-29T09:38:40;1.85;;;1.70;;
9138;SDS011;4604;48.616;9.548;2023-07-29T09:41:09;2.67;;;1.65;;
9138;SDS011;4604;48.616;9.548;2023-07-29T09:43:39;2.25;;;1.60;;
9138;SDS011;4604;48.616;9.548;2023-07-29T09:46:05;1.42;;;1.30;;
9138;SDS011;4604;48.616;9.548;2023-07-29T09:48:33;2.13;;;1.70;;
9138;SDS011;4604;48.616;9.548;2023-07-29T09:51:12;2.60;;;1.65;;
9138;SDS011;4604;48.616;9.548;2023-07-29T09:53:40;1.77;;;1.67;;
9138;SDS011;4604;48.616;9.548;2023-07-29T09:56:09;1.88;;;1.70;;
9138;SDS011;4604;48.616;9.548;2023-07-29T09:58:36;2.00;;;1.73;;
9138;SDS011;4604;48.616;9.548;2023-07-29T10:01:03;2.65;;;1.60;;
9138;SDS011;4604;48.616;9.548;2023-07-29T10:03:30;1.92;;;1.75;;
9138;SDS011;4604;48.616;9.548;2023-07-29T10:05:59;2.10;;;1.67;;
9138;SDS011;4604;48.616;9.548;2023-07-29T10:08:27;2.28;;;2.00;;
9138;SDS011;4604;48.616;9.548;2023-07-29T10:10:56;3.10;;;2.05;;
9138;SDS011;4604;48.616;9.548;2023-07-29T10:13:26;2.42;;;2.03;;
9138;SDS011;4604;48.616;9.548;2023-07-29T10:15:53;4.70;;;2.50;;
9138;SDS011;4604;48.616;9.548;2023-07-29T10:18:21;2.58;;;1.95;;
9138;SDS011;4604;48.616;9.548;2023-07-29T10:20:48;3.55;;;2.22;;
9138;SDS011;4604;48.616;9.548;2023-07-29T10:23:17;2.55;;;2.28;;
9138;SDS011;4604;48.616;9.548;2023-07-29T10:25:47;2.15;;;1.95;;
9138;SDS011;4604;48.616;9.548;2023-07-29T10:28:18;2.38;;;2.13;;
9138;SDS011;4604;48.616;9.548;2023-07-29T10:30:48;2.85;;;2.30;;
9138;SDS011;4604;48.616;9.548;2023-07-29T10:33:16;2.83;;;2.30;;
9138;SDS011;4604;48.616;9.548;2023-07-29T10:35:42;3.15;;;2.40;;
9138;SDS011;4604;48.616;9.548;2023-07-29T10:38:09;3.53;;;2.22;;
9138;SDS011;4604;48.616;9.548;2023-07-29T10:40:46;6.57;;;2.60;;
9138;SDS011;4604;48.616;9.548;2023-07-29T10:43:18;2.95;;;2.47;;
9138;SDS011;4604;48.616;9.548;2023-07-29T10:45:51;2.40;;;2.20;;
9138;SDS011;4604;48.616;9.548;2023-07-29T10:51:21;2.80;;;2.20;;
9138;SDS011;4604;48.616;9.548;2023-07-29T10:53:51;5.35;;;2.47;;
9138;SDS011;4604;48.616;9.548;2023-07-29T10:56:24;2.28;;;2.03;;
9138;SDS011;4604;48.616;9.548;2023-07-29T10:58:52;3.00;;;2.22;;
9138;SDS011;4604;48.616;9.548;2023-07-29T11:01:27;3.58;;;2.60;;
9138;SDS011;4604;48.616;9.548;2023-07-29T11:09:55;2.83;;;2.25;;
9138;SDS011;4604;48.616;9.548;2023-07-29T11:12:36;3.10;;;2.38;;
9138;SDS011;4604;48.616;9.548;2023-07-29T11:15:04;6.03;;;2.10;;
9138;SDS011;4604;48.616;9.548;2023-07-29T11:17:42;5.93;;;2.40;;
9138;SDS011;4604;48.616;9.548;2023-07-29T11:20:10;3.08;;;2.35;;
9138;SDS011;4604;48.616;9.548;2023-07-29T11:22:39;2.45;;;2.22;;
9138;SDS011;4604;48.616;9.548;2023-07-29T11:25:07;2.40;;;2.20;;
9138;SDS011;4604;48.616;9.548;2023-07-29T11:27:35;3.65;;;2.60;;
9138;SDS011;4604;48.616;9.548;2023-07-29T11:30:02;2.65;;;2.00;;
9138;SDS011;4604;48.616;9.548;2023-07-29T11:32:31;2.40;;;2.20;;
9138;SDS011;4604;48.616;9.548;2023-07-29T11:35:02;2.97;;;2.30;;
9138;SDS011;4604;48.616;9.548;2023-07-29T11:37:29;2.90;;;2.67;;
9138;SDS011;4604;48.616;9.548;2023-07-29T11:39:56;3.85;;;2.17;;
9138;SDS011;4604;48.616;9.548;2023-07-29T11:42:23;5.35;;;2.20;;
9138;SDS011;4604;48.616;9.548;2023-07-29T11:44:50;4.32;;;2.30;;
9138;SDS011;4604;48.616;9.548;2023-07-29T11:47:17;2.95;;;2.15;;
9138;SDS011;4604;48.616;9.548;2023-07-29T11:49:43;3.40;;;2.25;;
9138;SDS011;4604;48.616;9.548;2023-07-29T11:52:11;2.75;;;1.95;;
9138;SDS011;4604;48.616;9.548;2023-07-29T11:54:38;4.05;;;2.17;;
9138;SDS011;4604;48.616;9.548;2023-07-29T11:57:06;4.00;;;2.47;;
9138;SDS011;4604;48.616;9.548;2023-07-29T11:59:33;2.38;;;2.15;;
9138;SDS011;4604;48.616;9.548;2023-07-29T12:02:00;3.28;;;2.40;;
9138;SDS011;4604;48.616;9.548;2023-07-29T12:04:28;2.33;;;2.13;;
9138;SDS011;4604;48.616;9.548;2023-07-29T12:06:55;4.32;;;2.22;;
9138;SDS011;4604;48.616;9.548;2023-07-29T12:09:24;2.30;;;2.10;;
9138;SDS011;4604;48.616;9.548;2023-07-29T12:11:52;4.88;;;2.55;;
9138;SDS011;4604;48.616;9.548;2023-07-29T12:14:18;1.92;;;1.75;;
9138;SDS011;4604;48.616;9.548;2023-07-29T12:16:47;3.40;;;2.53;;
9138;SDS011;4604;48.616;9.548;2023-07-29T12:19:14;2.38;;;2.17;;
9138;SDS011;4604;48.616;9.548;2023-07-29T12:21:42;2.40;;;2.20;;
9138;SDS011;4604;48.616;9.548;2023-07-29T12:24:10;4.63;;;2.15;;
9138;SDS011;4604;48.616;9.548;2023-07-29T12:26:40;2.53;;;2.00;;
9138;SDS011;4604;48.616;9.548;2023-07-29T12:29:11;2.53;;;2.30;;
9138;SDS011;4604;48.616;9.548;2023-07-29T12:31:38;2.97;;;2.30;;
9138;SDS011;4604;48.616;9.548;2023-07-29T12:34:05;3.58;;;2.30;;
9138;SDS011;4604;48.616;9.548;2023-07-29T12:36:41;2.45;;;2.25;;
9138;SDS011;4604;48.616;9.548;2023-07-29T12:39:15;2.22;;;2.03;;
9138;SDS011;4604;48.616;9.548;2023-07-29T12:41:46;2.10;;;1.90;;
9138;SDS011;4604;48.616;9.548;2023-07-29T12:44:15;2.67;;;2.42;;
9138;SDS011;4604;48.616;9.548;2023-07-29T12:46:42;2.58;;;2.08;;
9138;SDS011;4604;48.616;9.548;2023-07-29T12:49:09;2.08;;;1.88;;
9138;SDS011;4604;48.616;9.548;2023-07-29T12:51:36;2.75;;;2.10;;
9138;SDS011;4604;48.616;9.548;2023-07-29T12:54:03;3.00;;;1.92;;
9138;SDS011;4604;48.616;9.548;2023-07-29T12:56:30;2.53;;;2.28;;
9138;SDS011;4604;48.616;9.548;2023-07-29T12:58:58;2.10;;;1.90;;
9138;SDS011;4604;48.616;9.548;2023-07-29T13:01:25;2.85;;;1.83;;
9138;SDS011;4604;48.616;9.548;2023-07-29T13:03:53;2.40;;;2.20;;
9138;SDS011;4604;48.616;9.548;2023-07-29T13:06:19;2.92;;;2.20;;
9138;SDS011;4604;48.616;9.548;2023-07-29T13:08:47;13.40;;;2.72;;
9138;SDS011;4604;48.616;9.548;2023-07-29T13:11:14;6.07;;;2.50;;
9138;SDS011;4604;48.616;9.548;2023-07-29T13:13:41;10.10;;;3.45;;
9138;SDS011;4604;48.616;9.548;2023-07-29T13:16:10;12.10;;;3.50;;
9138;SDS011;4604;48.616;9.548;2023-07-29T13:18:36;11.77;;;3.20;;
9138;SDS011;4604;48.616;9.548;2023-07-29T13:21:03;5.82;;;3.47;;
9138;SDS011;4604;48.616;9.548;2023-07-29T13:23:30;4.22;;;2.35;;
9138;SDS011;4604;48.616;9.548;2023-07-29T13:25:56;2.53;;;2.28;;
9138;SDS011;4604;48.616;9.548;2023-07-29T13:28:27;3.38;;;2.33;;
9138;SDS011;4604;48.616;9.548;2023-07-29T13:30:55;2.67;;;2.25;;
9138;SDS011;4604;48.616;9.548;2023-07-29T13:33:23;2.80;;;2.47;;
9138;SDS011;4604;48.616;9.548;2023-07-29T13:35:50;3.20;;;2.55;;
9138;SDS011;4604;48.616;9.548;2023-07-29T13:38:17;2.60;;;2.03;;
9138;SDS011;4604;48.616;9.548;2023-07-29T13:40:45;3.25;;;2.50;;
9138;SDS011;4604;48.616;9.548;2023-07-29T13:43:11;2.42;;;2.22;;
9138;SDS011;4604;48.616;9.548;2023-07-29T13:45:38;2.75;;;2.53;;
9138;SDS011;4604;48.616;9.548;2023-07-29T13:48:05;3.05;;;2.60;;
9138;SDS011;4604;48.616;9.548;2023-07-29T13:50:33;2.60;;;2.28;;
9138;SDS011;4604;48.616;9.548;2023-07-29T13:52:59;4.32;;;3.13;;
9138;SDS011;4604;48.616;9.548;2023-07-29T13:55:26;4.63;;;3.10;;
9138;SDS011;4604;48.616;9.548;2023-07-29T13:57:52;3.53;;;2.70;;
9138;SDS011;4604;48.616;9.548;2023-07-29T14:00:19;6.55;;;4.00;;
9138;SDS011;4604;48.616;9.548;2023-07-29T14:02:46;4.70;;;2.88;;
9138;SDS011;4604;48.616;9.548;2023-07-29T14:05:13;3.17;;;2.88;;
9138;SDS011;4604;48.616;9.548;2023-07-29T14:07:41;3.63;;;2.83;;
9138;SDS011;4604;48.616;9.548;2023-07-29T14:10:08;2.92;;;2.53;;
9138;SDS011;4604;48.616;9.548;2023-07-29T14:12:35;4.88;;;3.35;;
9138;SDS011;4604;48.616;9.548;2023-07-29T14:15:01;4.40;;;3.10;;
9138;SDS011;4604;48.616;9.548;2023-07-29T14:17:29;3.85;;;3.05;;
9138;SDS011;4604;48.616;9.548;2023-07-29T14:19:55;4.13;;;2.63;;
9138;SDS011;4604;48.616;9.548;2023-07-29T14:22:22;3.08;;;2.40;;
9138;SDS011;4604;48.616;9.548;2023-07-29T14:24:50;2.65;;;2.30;;
9138;SDS011;4604;48.616;9.548;2023-07-29T14:27:17;2.40;;;2.20;;
9138;SDS011;4604;48.616;9.548;2023-07-29T14:29:44;3.50;;;2.20;;
9138;SDS011;4604;48.616;9.548;2023-07-29T14:32:10;2.42;;;2.22;;
9138;SDS011;4604;48.616;9.548;2023-07-29T14:34:37;2.90;;;2.10;;
9138;SDS011;4604;48.616;9.548;2023-07-29T14:37:04;2.60;;;2.40;;
9138;SDS011;4604;48.616;9.548;2023-07-29T14:39:31;3.50;;;2.70;;
9138;SDS011;4604;48.616;9.548;2023-07-29T14:42:00;3.80;;;2.22;;
9138;SDS011;4604;48.616;9.548;2023-07-29T14:44:26;2.45;;;2.20;;
9138;SDS011;4604;48.616;9.548;2023-07-29T14:46:53;2.67;;;2.25;;
9138;SDS011;4604;48.616;9.548;2023-07-29T14:49:20;3.38;;;2.53;;
9138;SDS011;4604;48.616;9.548;2023-07-29T14:51:47;2.25;;;2.05;;
9138;SDS011;4604;48.616;9.548;2023-07-29T14:54:13;2.85;;;2.10;;
9138;SDS011;4604;48.616;9.548;2023-07-29T14:56:40;4.85;;;2.33;;
9138;SDS011;4604;48.616;9.548;2023-07-29T14:59:08;4.30;;;2.25;;
9138;SDS011;4604;48.616;9.548;2023-07-29T15:01:35;3.10;;;2.28;;
9138;SDS011;4604;48.616;9.548;2023-07-29T15:04:01;2.90;;;2.40;;
9138;SDS011;4604;48.616;9.548;2023-07-29T15:06:29;2.50;;;2.20;;
9138;SDS011;4604;48.616;9.548;2023-07-29T15:08:56;2.33;;;2.10;;
9138;SDS011;4604;48.616;9.548;2023-07-29T15:11:22;2.38;;;2.10;;
9138;SDS011;4604;48.616;9.548;2023-07-29T15:13:49;2.90;;;2.30;;
9138;SDS011;4604;48.616;9.548;2023-07-29T15:16:17;5.70;;;2.20;;
9138;SDS011;4604;48.616;9.548;2023-07-29T15:18:44;3.00;;;2.60;;
9138;SDS011;4604;48.616;9.548;2023-07-29T15:21:10;2.30;;;2.10;;
9138;SDS011;4604;48.616;9.548;2023-07-29T15:23:39;3.22;;;2.22;;
9138;SDS011;4604;48.616;9.548;2023-07-29T15:26:07;2.63;;;2.20;;